Time;durP1;ratioP1;P1;durP2;ratioP2;P2;SDS_P1;SDS_P2;PMS_P1;PMS_P2;Temp;Humidity;BMP_temperature;BMP_pressure;BME280_temperature;BME280_humidity;BME280_pressure;Samples;Min_cycle;Max_cycle;Signal;HPM_P1;HPM_P2
2023/07/11 00:00:59;;;;;;;;;9.00;9.00;;;;;26.78;59.11;100533.09;5012512;28;45533;-83
2023/07/11 00:03:25;;;;;;;;;9.00;8.00;;;;;26.73;59.17;100518.97;5009992;28;45356;-86
2023/07/11 00:06:01;;;;;;;;;8.00;7.00;;;;;26.76;59.45;100518.88;5009964;28;46040;-86
2023/07/11 00:08:26;;;;;;;;;10.00;9.00;;;;;26.78;59.08;100527.72;5009739;28;45474;-86
2023/07/11 00:10:52;;;;;;;;;8.00;8.00;;;;;26.73;59.42;100516.28;5007759;28;45700;-85
2023/07/11 00:13:17;;;;;;;;;9.67;9.00;;;;;26.61;59.52;100517.63;5009777;28;45656;-85
2023/07/11 00:15:43;;;;;;;;;10.00;9.67;;;;;26.49;59.72;100510.88;5008923;28;46175;-86
2023/07/11 00:18:09;;;;;;;;;8.00;8.00;;;;;26.37;59.97;100506.84;5006508;28;45611;-86
2023/07/11 00:20:34;;;;;;;;;9.00;8.67;;;;;26.32;60.21;100515.97;5013566;28;45406;-86
2023/07/11 00:23:00;;;;;;;;;9.00;8.67;;;;;26.35;60.08;100514.06;5019328;28;45423;-86
2023/07/11 00:25:25;;;;;;;;;9.67;8.00;;;;;26.39;59.60;100502.28;5019045;28;45576;-85
2023/07/11 00:27:51;;;;;;;;;7.33;7.33;;;;;26.42;59.70;100508.47;5018751;28;45467;-86
2023/07/11 00:30:16;;;;;;;;;9.00;9.00;;;;;26.33;59.81;100486.44;5034121;28;45538;-86
2023/07/11 00:32:42;;;;;;;;;7.33;7.33;;;;;26.35;60.48;100508.69;5018021;28;45459;-86
2023/07/11 00:35:08;;;;;;;;;10.00;9.00;;;;;26.23;60.90;100501.09;5034041;28;47333;-85
2023/07/11 00:37:34;;;;;;;;;9.00;8.33;;;;;26.08;61.34;100498.97;5018946;28;45590;-87
2023/07/11 00:39:59;;;;;;;;;9.00;9.00;;;;;26.03;61.46;100500.94;5019242;28;45346;-76
2023/07/11 00:42:25;;;;;;;;;10.00;9.00;;;;;26.08;61.67;100488.25;5019600;28;45512;-87
2023/07/11 00:44:57;;;;;;;;;8.00;7.00;;;;;26.17;61.54;100483.44;5017361;28;45583;-86
2023/07/11 00:47:25;;;;;;;;;9.33;9.00;;;;;26.24;61.47;100484.09;5018951;28;45501;-86
2023/07/11 00:49:55;;;;;;;;;8.33;8.33;;;;;26.31;61.46;100476.75;5019021;28;45254;-86
2023/07/11 00:52:23;;;;;;;;;9.00;8.33;;;;;26.36;61.14;100475.66;5019052;28;45428;-87
2023/07/11 00:54:54;;;;;;;;;7.67;7.67;;;;;26.25;62.40;100468.94;5018522;28;45328;-86
2023/07/11 00:57:23;;;;;;;;;9.00;9.00;;;;;26.10;62.68;100454.28;5018317;28;45472;-85
2023/07/11 00:59:48;;;;;;;;;8.67;8.00;;;;;26.06;62.75;100460.66;5018690;28;45471;-86
2023/07/11 01:02:20;;;;;;;;;7.33;7.33;;;;;25.94;63.98;100449.50;5018619;28;45453;-86
2023/07/11 01:04:45;;;;;;;;;8.67;8.67;;;;;25.88;63.53;100443.44;5017050;28;46401;-86
2023/07/11 01:07:15;;;;;;;;;10.00;9.00;;;;;25.83;63.80;100438.25;5018565;28;46044;-86
2023/07/11 01:09:40;;;;;;;;;9.33;9.33;;;;;25.76;64.62;100432.22;5017315;28;45282;-86
2023/07/11 01:12:08;;;;;;;;;12.00;9.00;;;;;25.85;63.67;100439.06;5018614;28;45450;-86
2023/07/11 01:14:36;;;;;;;;;8.00;8.00;;;;;25.79;63.57;100431.25;5018470;28;45375;-85
2023/07/11 01:17:27;;;;;;;;;9.67;9.33;;;;;25.76;63.57;100426.88;5018663;28;45538;-75
2023/07/11 01:23:15;;;;;;;;;9.67;8.00;;;;;25.86;63.40;100419.38;5018639;28;45319;-86
2023/07/11 01:25:41;;;;;;;;;9.67;8.67;;;;;25.85;62.96;100406.94;5016962;28;46186;-86
2023/07/11 01:28:07;;;;;;;;;8.33;8.33;;;;;25.92;62.65;100413.84;5018108;28;45292;-85
2023/07/11 01:30:32;;;;;;;;;9.00;8.33;;;;;25.93;62.73;100404.91;5017088;28;45330;-75
2023/07/11 01:32:58;;;;;;;;;9.00;8.33;;;;;25.92;62.86;100397.78;5018569;28;45395;-86
2023/07/11 01:35:23;;;;;;;;;7.00;7.00;;;;;26.03;62.83;100415.28;5017889;28;46010;-86
2023/07/11 01:37:49;;;;;;;;;8.00;8.00;;;;;26.05;63.39;100421.47;5017956;28;45276;-86
2023/07/11 01:40:15;;;;;;;;;9.00;9.00;;;;;26.01;63.04;100404.63;5018002;28;45898;-86
2023/07/11 01:42:43;;;;;;;;;9.00;8.00;;;;;26.09;63.23;100412.38;5018315;28;45852;-86
2023/07/11 01:45:10;;;;;;;;;8.00;8.00;;;;;26.11;63.23;100398.00;5017935;28;45996;-85
2023/07/11 01:47:36;;;;;;;;;10.33;8.00;;;;;26.17;63.03;100397.78;5017998;28;45418;-85
2023/07/11 01:50:01;;;;;;;;;10.33;9.00;;;;;26.14;62.81;100383.63;5018367;28;45426;-85
2023/07/11 01:52:27;;;;;;;;;9.67;7.33;;;;;26.09;63.29;100390.97;5016746;28;45720;-83
2023/07/11 01:54:52;;;;;;;;;6.67;6.67;;;;;26.07;63.08;100391.03;5017778;28;45466;-86
2023/07/11 01:57:19;;;;;;;;;10.33;8.00;;;;;26.13;63.22;100390.78;5033075;28;45266;-85
2023/07/11 01:59:44;;;;;;;;;9.00;7.00;;;;;26.01;63.54;100371.66;5017966;28;45558;-86
2023/07/11 02:02:10;;;;;;;;;10.00;8.00;;;;;26.02;63.86;100376.91;5017517;28;45524;-84
2023/07/11 02:04:37;;;;;;;;;5.00;5.00;;;;;25.86;63.31;100362.31;5017479;28;45985;-85
2023/07/11 02:07:05;;;;;;;;;9.00;7.67;;;;;25.82;64.20;100368.72;5016814;28;45439;-88
2023/07/11 02:09:31;;;;;;;;;9.67;9.00;;;;;25.90;63.90;100359.50;5020013;28;45221;-84
2023/07/11 02:11:57;;;;;;;;;9.00;8.00;;;;;25.86;63.93;100348.94;5017846;28;45296;-85
2023/07/11 02:14:23;;;;;;;;;9.00;7.00;;;;;25.90;63.23;100356.84;5017452;28;45502;-85
2023/07/11 02:16:51;;;;;;;;;9.67;9.67;;;;;26.04;63.33;100371.53;5017463;28;45413;-85
2023/07/11 02:19:20;;;;;;;;;10.00;10.00;;;;;26.00;63.08;100362.72;5017464;28;45524;-85
2023/07/11 02:21:46;;;;;;;;;8.67;8.67;;;;;26.07;63.23;100358.03;5017727;28;45532;-85
2023/07/11 02:24:14;;;;;;;;;10.33;9.00;;;;;25.97;63.08;100336.09;5016970;28;45386;-84
2023/07/11 02:26:40;;;;;;;;;7.00;6.67;;;;;25.94;63.18;100337.09;5017275;28;45270;-85
2023/07/11 02:29:06;;;;;;;;;9.67;8.67;;;;;25.85;62.73;100336.50;5017508;28;45260;-73
2023/07/11 02:31:34;;;;;;;;;9.00;8.00;;;;;25.87;62.64;100340.88;5017864;28;45374;-86
2023/07/11 02:34:00;;;;;;;;;10.00;9.00;;;;;25.89;62.75;100341.69;5017037;28;46189;-85
2023/07/11 02:36:27;;;;;;;;;9.33;8.33;;;;;25.91;62.71;100337.19;5032604;28;45521;-86
2023/07/11 02:38:54;;;;;;;;;8.00;8.00;;;;;25.90;62.72;100331.84;5032345;28;45488;-86
2023/07/11 02:41:19;;;;;;;;;7.00;7.00;;;;;25.94;62.58;100344.22;5032482;28;45779;-85
2023/07/11 02:43:46;;;;;;;;;10.33;9.33;;;;;25.86;62.97;100314.16;5017192;28;45422;-85
2023/07/11 02:46:13;;;;;;;;;8.00;7.33;;;;;25.85;62.84;100337.38;5017190;28;45368;-85
2023/07/11 02:48:39;;;;;;;;;7.33;7.00;;;;;25.83;62.60;100328.53;5017099;28;45253;-84
2023/07/11 02:51:05;;;;;;;;;7.67;7.67;;;;;25.83;62.62;100323.19;5017474;28;45640;-85
2023/07/11 02:53:30;;;;;;;;;9.33;7.33;;;;;25.78;62.64;100309.97;5016644;28;45431;-85
2023/07/11 02:55:56;;;;;;;;;12.33;10.33;;;;;25.77;62.67;100304.69;5017072;28;45415;-85
2023/07/11 02:58:22;;;;;;;;;10.00;9.33;;;;;25.78;63.40;100311.75;5017094;28;45368;-85
2023/07/11 03:00:55;;;;;;;;;10.33;10.33;;;;;25.73;63.47;100308.41;5015980;28;45274;-85
2023/07/11 03:03:21;;;;;;;;;10.00;8.67;;;;;25.59;63.49;100293.72;5016874;28;46223;-85
2023/07/11 03:05:48;;;;;;;;;10.00;8.33;;;;;25.62;63.76;100303.41;5016712;28;45442;-85
2023/07/11 03:08:15;;;;;;;;;5.33;5.33;;;;;25.63;63.64;100301.66;5015657;28;45377;-85
2023/07/11 03:10:40;;;;;;;;;9.00;8.00;;;;;25.71;63.93;100302.22;5017209;28;45474;-85
2023/07/11 03:13:06;;;;;;;;;8.33;8.33;;;;;25.60;64.20;100284.78;5017006;28;46256;-86
2023/07/11 03:15:39;;;;;;;;;12.33;10.00;;;;;25.65;64.68;100287.28;5016892;28;45438;-85
2023/07/11 03:18:06;;;;;;;;;9.00;8.00;;;;;25.54;64.86;100279.63;5017189;28;45334;-85
2023/07/11 03:20:41;;;;;;;;;9.00;7.33;;;;;25.48;65.00;100289.69;5015789;28;45320;-85
2023/07/11 03:23:09;;;;;;;;;9.33;8.00;;;;;25.45;65.01;100293.34;5020522;28;45428;-85
2023/07/11 03:25:36;;;;;;;;;8.33;8.00;;;;;25.49;65.11;100288.75;5019237;28;45336;-85
2023/07/11 03:28:01;;;;;;;;;10.00;9.33;;;;;25.41;64.92;100270.31;5020250;28;45411;-85
2023/07/11 03:30:27;;;;;;;;;9.00;9.00;;;;;25.33;65.11;100275.06;5035646;28;45499;-85
2023/07/11 03:32:52;;;;;;;;;10.00;9.00;;;;;25.27;65.62;100283.28;5019838;28;45207;-84
2023/07/11 03:35:18;;;;;;;;;10.00;9.67;;;;;25.28;65.52;100296.59;5020010;28;45281;-85
2023/07/11 03:37:43;;;;;;;;;8.00;7.67;;;;;25.28;65.58;100291.25;5020267;28;45311;-85
2023/07/11 03:40:10;;;;;;;;;9.00;8.67;;;;;25.40;65.07;100297.97;5020331;28;45458;-85
2023/07/11 03:42:35;;;;;;;;;8.00;8.00;;;;;25.43;64.91;100291.63;5020162;28;46035;-84
2023/07/11 03:45:01;;;;;;;;;10.00;8.67;;;;;25.36;65.19;100291.00;5019874;28;45375;-85
2023/07/11 03:47:26;;;;;;;;;9.00;9.00;;;;;25.22;66.21;100290.59;5020006;28;45393;-84
2023/07/11 03:49:52;;;;;;;;;8.33;8.33;;;;;25.11;66.29;100281.13;5035251;28;45498;-85
2023/07/11 03:52:17;;;;;;;;;8.00;7.00;;;;;25.07;65.75;100281.25;5034917;28;46376;-85
2023/07/11 03:54:43;;;;;;;;;9.00;8.00;;;;;25.14;65.53;100282.81;5019875;28;45252;-85
2023/07/11 03:57:08;;;;;;;;;7.67;7.67;;;;;25.19;66.00;100295.09;5020222;28;45525;-84
2023/07/11 03:59:34;;;;;;;;;8.67;8.33;;;;;25.08;65.99;100275.88;5019763;28;45438;-85
2023/07/11 04:01:59;;;;;;;;;6.67;6.67;;;;;25.21;65.51;100292.38;5019513;28;45371;-83
2023/07/11 04:04:25;;;;;;;;;8.67;8.00;;;;;25.22;65.54;100303.97;5019541;28;45497;-84
2023/07/11 04:06:50;;;;;;;;;8.00;7.33;;;;;25.12;65.65;100288.19;5019763;28;45350;-85
2023/07/11 04:09:16;;;;;;;;;8.33;8.33;;;;;25.18;65.74;100293.34;5019582;28;45515;-85
2023/07/11 04:11:42;;;;;;;;;8.00;7.33;;;;;25.23;65.34;100289.66;5019798;28;46173;-76
2023/07/11 04:14:10;;;;;;;;;8.33;8.33;;;;;25.26;65.30;100295.78;5018424;28;45242;-85
2023/07/11 04:16:35;;;;;;;;;7.67;7.67;;;;;25.20;65.55;100299.50;5018244;28;45457;-85
2023/07/11 04:19:01;;;;;;;;;7.00;7.00;;;;;25.13;65.74;100289.09;5019507;28;45480;-84
2023/07/11 04:21:26;;;;;;;;;8.00;8.00;;;;;25.16;65.83;100305.88;5018052;28;45519;-85
2023/07/11 04:23:52;;;;;;;;;7.67;7.67;;;;;25.11;65.91;100286.47;5019568;28;46026;-85
2023/07/11 04:26:18;;;;;;;;;9.00;6.67;;;;;25.12;65.84;100296.22;5018061;28;45431;-85
2023/07/11 04:28:43;;;;;;;;;9.00;8.33;;;;;25.09;65.66;100296.34;5019563;28;45429;-84
2023/07/11 04:31:09;;;;;;;;;9.00;8.00;;;;;25.09;65.71;100293.66;5019156;28;45328;-85
2023/07/11 04:33:37;;;;;;;;;9.00;8.00;;;;;25.17;65.69;100298.75;5023974;28;45511;-85
2023/07/11 04:36:12;;;;;;;;;10.00;9.00;;;;;25.19;65.14;100303.13;5025330;28;45748;-85
2023/07/11 04:38:38;;;;;;;;;9.67;7.67;;;;;25.08;65.49;100296.38;5026661;28;45219;-84
2023/07/11 04:41:07;;;;;;;;;10.00;9.33;;;;;25.07;65.40;100308.88;5029637;28;46101;-84
2023/07/11 04:43:35;;;;;;;;;8.33;8.33;;;;;25.14;65.16;100305.06;5026185;28;45345;-85
2023/07/11 04:46:03;;;;;;;;;9.33;8.33;;;;;25.18;64.79;100312.03;5022947;28;45467;-86
2023/07/11 04:48:30;;;;;;;;;6.67;6.67;;;;;25.17;64.56;100293.41;5018361;28;45583;-86
2023/07/11 04:51:02;;;;;;;;;9.00;9.00;;;;;25.23;64.62;100300.34;5018746;28;46134;-86
2023/07/11 04:53:28;;;;;;;;;6.00;6.00;;;;;25.28;64.57;100303.75;5018818;28;45386;-83
2023/07/11 04:56:02;;;;;;;;;10.33;8.33;;;;;25.22;64.43;100283.44;5019194;28;45398;-86
2023/07/11 04:58:29;;;;;;;;;7.00;6.33;;;;;25.34;64.27;100303.53;5019086;28;45450;-86
2023/07/11 05:01:00;;;;;;;;;9.00;8.00;;;;;25.37;64.29;100303.44;5017344;28;47102;-86
2023/07/11 05:03:26;;;;;;;;;8.00;7.33;;;;;25.36;64.16;100299.00;5018653;28;45244;-85
2023/07/11 05:05:51;;;;;;;;;9.00;7.67;;;;;25.40;64.26;100297.97;5018742;28;45411;-85
2023/07/11 05:08:17;;;;;;;;;8.33;8.00;;;;;25.35;64.58;100286.59;5034176;28;45563;-86
2023/07/11 05:10:58;;;;;;;;;8.00;8.00;;;;;25.29;64.68;100284.13;5018845;28;46580;-86
2023/07/11 05:13:24;;;;;;;;;6.33;6.33;;;;;25.43;64.51;100289.84;5018952;28;45438;-85
2023/07/11 05:15:49;;;;;;;;;8.67;8.00;;;;;25.36;64.62;100280.28;5018754;28;45201;-85
2023/07/11 05:18:15;;;;;;;;;6.33;6.33;;;;;25.43;64.56;100281.84;5034647;28;45499;-86
2023/07/11 05:20:40;;;;;;;;;9.33;7.33;;;;;25.53;63.96;100291.25;5018400;28;45867;-86
2023/07/11 05:23:06;;;;;;;;;7.67;7.67;;;;;25.53;63.96;100285.91;5018538;28;45166;-85
2023/07/11 05:25:35;;;;;;;;;7.00;6.67;;;;;25.60;64.31;100282.09;5017108;28;45436;-85
2023/07/11 05:28:00;;;;;;;;;9.00;8.33;;;;;25.68;63.98;100273.78;5017193;28;45288;-85
2023/07/11 05:30:26;;;;;;;;;6.67;6.67;;;;;25.80;63.58;100285.81;5033555;28;47314;-85
2023/07/11 05:32:51;;;;;;;;;8.00;8.00;;;;;25.80;63.73;100284.03;5017886;28;45311;-85
2023/07/11 05:35:17;;;;;;;;;8.33;8.33;;;;;25.83;63.38;100280.38;5018981;28;45515;-80
2023/07/11 05:37:42;;;;;;;;;9.00;8.33;;;;;25.94;63.43;100282.66;5034437;28;45538;-84
2023/07/11 05:40:08;;;;;;;;;7.00;6.67;;;;;26.11;63.55;100290.06;5017865;28;46117;-84
2023/07/11 05:42:34;;;;;;;;;7.00;6.67;;;;;26.16;62.79;100272.00;5018364;28;45422;-85
2023/07/11 05:44:59;;;;;;;;;8.00;8.00;;;;;26.29;62.97;100275.09;5032278;28;45454;-81
2023/07/11 05:47:25;;;;;;;;;6.00;6.00;;;;;26.34;62.65;100273.97;5018299;28;45556;-85
2023/07/11 05:49:51;;;;;;;;;9.33;8.33;;;;;26.45;62.91;100268.19;5018219;28;46106;-83
2023/07/11 05:52:16;;;;;;;;;8.00;8.00;;;;;26.60;62.00;100280.13;5016857;28;45408;-85
2023/07/11 05:54:42;;;;;;;;;11.00;10.33;;;;;26.67;61.48;100270.88;5017865;28;45245;-86
2023/07/11 05:57:07;;;;;;;;;9.67;8.00;;;;;26.79;61.29;100265.00;5018247;28;45228;-85
2023/07/11 05:59:33;;;;;;;;;9.00;8.33;;;;;26.87;61.04;100264.69;5012854;28;46148;-85
2023/07/11 06:01:59;;;;;;;;;8.67;8.00;;;;;27.03;61.23;100266.72;5017348;28;45422;-85
2023/07/11 06:04:24;;;;;;;;;10.33;9.00;;;;;27.12;60.85;100263.66;5017522;28;45432;-86
2023/07/11 06:06:50;;;;;;;;;8.00;7.33;;;;;27.28;60.04;100272.81;5017579;28;45502;-85
2023/07/11 06:09:18;;;;;;;;;7.00;7.00;;;;;27.40;59.90;100279.44;5033001;28;46754;-85
2023/07/11 06:11:45;;;;;;;;;7.67;7.33;;;;;27.47;59.28;100267.50;5016309;28;45594;-82
2023/07/11 06:14:11;;;;;;;;;8.00;8.00;;;;;27.50;58.63;100263.81;5016206;28;45536;-82
2023/07/11 06:16:38;;;;;;;;;10.00;9.00;;;;;27.39;58.04;100261.59;5017461;28;45287;-84
2023/07/11 06:19:04;;;;;;;;;9.00;8.00;;;;;27.42;58.67;100269.53;5032726;28;45415;-84
2023/07/11 06:21:30;;;;;;;;;9.00;8.00;;;;;27.60;58.54;100259.78;5017220;28;45536;-84
2023/07/11 06:23:56;;;;;;;;;5.67;5.67;;;;;27.84;57.82;100265.84;5017154;28;45490;-86
2023/07/11 06:26:22;;;;;;;;;9.00;8.00;;;;;28.06;57.57;100264.88;5017316;28;45451;-76
2023/07/11 06:28:47;;;;;;;;;9.00;7.00;;;;;28.20;57.18;100270.44;5017333;28;45429;-83
2023/07/11 06:31:14;;;;;;;;;6.67;6.67;;;;;28.32;57.45;100258.25;5015663;28;45523;-86
2023/07/11 06:33:40;;;;;;;;;8.33;6.67;;;;;28.50;57.06;100272.59;5017162;28;45501;-76
2023/07/11 06:36:07;;;;;;;;;8.00;8.00;;;;;28.62;56.68;100265.78;5015886;28;45592;-86
2023/07/11 06:38:33;;;;;;;;;5.67;5.67;;;;;28.74;56.34;100271.41;5015232;28;45505;-75
2023/07/11 06:40:59;;;;;;;;;8.00;7.33;;;;;28.82;55.82;100273.72;5017425;28;45506;-83
2023/07/11 06:43:26;;;;;;;;;9.00;7.00;;;;;29.00;55.53;100276.44;5032434;28;45534;-86
2023/07/11 06:45:55;;;;;;;;;7.67;7.67;;;;;29.16;54.98;100277.41;5016970;28;45426;-82
2023/07/11 06:48:24;;;;;;;;;7.00;7.00;;;;;29.23;55.04;100283.34;5015305;28;46749;-85
2023/07/11 06:50:55;;;;;;;;;7.00;6.67;;;;;29.28;55.01;100275.91;5016870;28;45912;-76
2023/07/11 06:53:24;;;;;;;;;9.00;8.00;;;;;29.42;54.11;100267.09;5014723;28;45545;-79
2023/07/11 06:55:51;;;;;;;;;7.00;7.00;;;;;29.49;53.96;100264.00;5014927;28;45524;-85
2023/07/11 06:58:18;;;;;;;;;7.67;7.00;;;;;29.67;53.46;100267.53;5019922;28;45935;-85
2023/07/11 07:00:44;;;;;;;;;6.67;6.67;;;;;29.73;52.97;100266.38;5019699;28;45461;-85
2023/07/11 07:03:13;;;;;;;;;6.00;6.00;;;;;29.88;52.86;100270.03;5019827;28;45338;-86
2023/07/11 07:05:50;;;;;;;;;8.00;6.00;;;;;29.98;53.06;100273.09;5018699;28;45651;-85
2023/07/11 07:08:16;;;;;;;;;8.33;7.33;;;;;30.16;52.26;100276.59;5016147;28;46336;-84
2023/07/11 07:10:41;;;;;;;;;8.00;6.00;;;;;30.05;51.64;100258.34;5030588;28;45467;-84
2023/07/11 07:13:07;;;;;;;;;7.67;6.00;;;;;30.02;50.69;100272.84;5020341;28;45355;-83
2023/07/11 07:15:32;;;;;;;;;7.00;6.00;;;;;30.05;51.67;100275.38;5020524;28;45367;-82
2023/07/11 07:17:58;;;;;;;;;5.67;5.00;;;;;30.29;50.96;100281.22;5016942;28;46261;-80
2023/07/11 07:20:23;;;;;;;;;7.00;6.33;;;;;30.26;50.90;100278.69;5007090;28;45451;-78
2023/07/11 07:22:49;;;;;;;;;7.33;7.00;;;;;30.24;51.08;100274.34;5012356;28;46075;-78
2023/07/11 07:25:14;;;;;;;;;7.67;6.00;;;;;30.29;50.45;100285.72;5012974;28;45491;-77
2023/07/11 07:27:40;;;;;;;;;6.00;6.00;;;;;30.11;50.87;100275.03;5009866;28;45376;-77
2023/07/11 07:30:08;;;;;;;;;6.00;5.67;;;;;30.21;50.64;100280.78;5010233;28;45557;-79
2023/07/11 07:32:35;;;;;;;;;7.00;7.00;;;;;30.25;50.44;100279.66;5018412;28;45288;-79
2023/07/11 07:35:00;;;;;;;;;8.33;6.33;;;;;30.21;50.58;100280.78;5006431;28;45630;-77
2023/07/11 07:37:26;;;;;;;;;7.00;7.00;;;;;30.13;50.36;100302.75;5007395;28;45842;-76
2023/07/11 07:39:51;;;;;;;;;5.00;5.00;;;;;30.02;50.88;100296.22;5010059;28;45845;-78
2023/07/11 07:42:17;;;;;;;;;5.67;5.67;;;;;30.10;50.73;100292.16;5009931;28;45583;-78
2023/07/11 07:44:43;;;;;;;;;6.67;6.00;;;;;30.21;50.58;100296.06;5007959;28;45607;-78
2023/07/11 07:47:08;;;;;;;;;6.67;6.00;;;;;30.32;50.23;100288.28;5007928;28;45551;-78
2023/07/11 07:49:34;;;;;;;;;6.33;6.33;;;;;30.41;50.32;100286.91;5023996;28;45566;-76
2023/07/11 07:51:59;;;;;;;;;6.67;6.00;;;;;30.50;49.98;100286.34;5010654;28;45489;-79
2023/07/11 07:54:26;;;;;;;;;6.67;5.00;;;;;30.66;50.37;100298.03;5019715;28;45362;-80
2023/07/11 07:56:52;;;;;;;;;6.00;4.67;;;;;30.86;49.73;100298.69;5013289;28;46048;-78
2023/07/11 07:59:19;;;;;;;;;7.00;6.00;;;;;30.84;49.17;100279.00;5016078;28;45225;-79
2023/07/11 08:01:45;;;;;;;;;6.67;6.67;;;;;30.91;48.53;100294.78;5017563;28;45556;-80
2023/07/11 08:04:10;;;;;;;;;23.67;21.00;;;;;30.66;48.92;100289.94;5018303;28;45511;-79
2023/07/11 08:06:37;;;;;;;;;9.33;8.67;;;;;30.67;49.67;100298.88;5018548;28;45423;-80
2023/07/11 08:09:03;;;;;;;;;5.00;4.33;;;;;30.39;49.88;100281.59;5017646;28;45547;-79
2023/07/11 08:11:29;;;;;;;;;5.67;5.00;;;;;30.35;49.91;100289.94;5018239;28;45582;-79
2023/07/11 08:13:54;;;;;;;;;4.67;4.00;;;;;30.36;50.11;100297.91;5019311;28;45536;-81
2023/07/11 08:16:22;;;;;;;;;5.00;5.00;;;;;30.16;50.31;100290.06;5020677;28;45362;-77
2023/07/11 08:18:49;;;;;;;;;5.33;4.00;;;;;30.19;51.16;100285.38;5023930;28;45622;-84
2023/07/11 08:21:15;;;;;;;;;5.67;5.00;;;;;30.14;50.86;100285.66;5018540;28;45420;-81
2023/07/11 08:23:40;;;;;;;;;7.33;7.00;;;;;30.02;50.20;100261.19;5019624;28;45336;-82
2023/07/11 08:26:06;;;;;;;;;5.33;5.33;;;;;29.78;50.55;100269.66;5019160;28;45613;-91
2023/07/11 08:28:32;;;;;;;;;4.67;4.33;;;;;29.91;51.27;100294.13;5018273;28;45360;-86
2023/07/11 08:30:59;;;;;;;;;5.00;5.00;;;;;29.98;50.58;100289.25;5019938;28;45447;-92
2023/07/11 08:33:25;;;;;;;;;5.00;5.00;;;;;29.91;50.52;100270.75;5019910;28;45554;-89
2023/07/11 08:35:55;;;;;;;;;4.00;4.00;;;;;30.01;51.06;100284.56;5019977;28;45529;-88
2023/07/11 08:38:20;;;;;;;;;5.00;5.00;;;;;30.02;51.13;100289.00;5019699;28;45335;-89
2023/07/11 08:40:46;;;;;;;;;3.67;3.00;;;;;30.03;51.14;100279.13;5018974;28;45533;-87
2023/07/11 08:43:23;;;;;;;;;3.67;3.00;;;;;29.99;51.09;100291.88;5019623;28;45300;-86
2023/07/11 08:45:58;;;;;;;;;2.67;2.67;;;;;30.03;50.69;100292.59;5019260;28;46076;-88
2023/07/11 08:48:32;;;;;;;;;3.00;3.00;;;;;29.92;51.08;100282.38;5017852;28;45680;-85
2023/07/11 08:51:12;;;;;;;;;4.00;3.67;;;;;29.90;51.03;100274.41;5019107;28;45539;-89
2023/07/11 08:53:47;;;;;;;;;4.33;3.33;;;;;29.94;50.78;100275.09;5017767;28;45276;-86
2023/07/11 08:56:37;;;;;;;;;5.00;4.00;;;;;29.82;50.80;100259.59;5016417;28;45666;-88
2023/07/11 08:59:16;;;;;;;;;3.00;2.00;;;;;29.99;50.58;100275.72;5021209;28;45387;-87
2023/07/11 09:01:51;;;;;;;;;3.00;2.00;;;;;30.02;50.34;100280.91;5017740;28;45653;-88
2023/07/11 09:04:21;;;;;;;;;3.00;3.00;;;;;29.88;51.16;100278.13;5016393;28;45413;-88
2023/07/11 09:06:58;;;;;;;;;3.00;2.33;;;;;29.88;50.94;100272.72;5017820;28;46330;-88
2023/07/11 09:09:25;;;;;;;;;2.00;2.00;;;;;29.93;50.53;100279.59;5018024;28;45284;-84
2023/07/11 09:12:05;;;;;;;;;2.33;2.33;;;;;29.99;50.96;100277.53;5018172;28;45533;-84
2023/07/11 09:14:46;;;;;;;;;3.00;2.33;;;;;29.97;50.57;100280.31;5007914;28;45346;-76
2023/07/11 09:17:30;;;;;;;;;3.33;3.00;;;;;29.78;50.50;100266.13;5014979;28;46026;-82
2023/07/11 09:20:10;;;;;;;;;3.00;3.00;;;;;29.80;50.39;100273.16;5015577;28;45403;-83
2023/07/11 09:22:47;;;;;;;;;2.00;2.00;;;;;29.70;50.67;100271.88;5015554;28;45328;-77
2023/07/11 09:25:19;;;;;;;;;2.00;2.00;;;;;29.59;51.42;100263.53;5015222;28;45268;-81
2023/07/11 09:27:55;;;;;;;;;2.67;2.00;;;;;29.65;51.07;100261.38;5017850;28;46226;-82
2023/07/11 09:30:32;;;;;;;;;3.00;2.33;;;;;29.69;50.90;100280.91;5017710;28;45406;-82
2023/07/11 09:33:22;;;;;;;;;2.00;1.00;;;;;29.59;51.30;100252.75;5016656;28;45507;-81
2023/07/11 09:35:50;;;;;;;;;2.00;2.00;;;;;29.64;50.90;100274.91;5018098;28;45475;-82
2023/07/11 09:38:36;;;;;;;;;2.67;2.00;;;;;29.44;50.71;100243.69;5017643;28;45383;-81
2023/07/11 09:41:10;;;;;;;;;2.67;2.33;;;;;29.52;50.92;100279.97;5016453;28;45761;-81
2023/07/11 09:43:36;;;;;;;;;1.00;1.00;;;;;29.33;51.72;100260.41;5017803;28;45581;-79
2023/07/11 09:46:02;;;;;;;;;2.33;2.00;;;;;29.24;51.33;100255.50;5016664;28;45580;-80
2023/07/11 09:48:34;;;;;;;;;3.00;3.00;;;;;29.40;51.80;100272.56;5017883;28;45472;-82
2023/07/11 09:51:00;;;;;;;;;1.33;1.00;;;;;29.36;51.30;100276.38;5017972;28;45532;-81
2023/07/11 09:53:28;;;;;;;;;4.00;4.00;;;;;29.28;51.57;100257.94;5017715;28;45527;-80
2023/07/11 09:56:02;;;;;;;;;2.00;2.00;;;;;29.43;51.25;100264.34;5017722;28;45317;-81
2023/07/11 09:58:32;;;;;;;;;2.00;2.00;;;;;29.48;51.11;100261.41;5017021;28;46285;-81
2023/07/11 10:01:03;;;;;;;;;2.00;2.00;;;;;29.49;50.61;100269.41;5017718;28;45332;-81
2023/07/11 10:03:34;;;;;;;;;2.00;1.00;;;;;29.42;51.11;100273.34;5017324;28;45285;-77
2023/07/11 10:06:01;;;;;;;;;2.00;2.00;;;;;29.41;50.82;100271.63;5017654;28;45329;-81
2023/07/11 10:08:40;;;;;;;;;6.67;5.33;;;;;29.27;51.40;100258.03;5017456;28;46303;-81
2023/07/11 10:11:12;;;;;;;;;2.00;2.00;;;;;29.34;51.01;100270.19;5017136;28;45598;-82
2023/07/11 10:13:40;;;;;;;;;4.00;2.67;;;;;29.33;51.61;100281.94;5017183;28;45436;-81
2023/07/11 10:16:06;;;;;;;;;4.00;3.00;;;;;29.31;51.38;100275.75;5017089;28;45237;-81
2023/07/11 10:18:35;;;;;;;;;2.00;2.00;;;;;29.26;51.42;100267.03;5016671;28;45319;-81
2023/07/11 10:21:11;;;;;;;;;4.67;4.33;;;;;29.30;51.55;100282.06;5015033;28;45569;-81
2023/07/11 10:23:36;;;;;;;;;5.00;5.00;;;;;29.27;51.47;100276.88;5016569;28;45446;-82
2023/07/11 10:26:27;;;;;;;;;2.00;2.00;;;;;29.20;51.46;100280.81;5015886;28;45395;-80
2023/07/11 10:29:07;;;;;;;;;3.00;2.33;;;;;29.20;51.56;100283.50;5013836;28;46119;-83
2023/07/11 10:31:58;;;;;;;;;2.33;2.33;;;;;29.16;52.07;100290.84;5014413;28;45648;-82
2023/07/11 10:34:35;;;;;;;;;0.00;0.00;;;;;29.11;52.15;100285.72;5015692;28;45364;-82
2023/07/11 10:37:12;;;;;;;;;1.00;1.00;;;;;29.07;52.00;100285.94;5016753;28;45575;-79
2023/07/11 10:39:47;;;;;;;;;3.00;2.00;;;;;28.89;52.17;100253.66;5016418;28;45576;-82
2023/07/11 10:42:31;;;;;;;;;3.00;2.00;;;;;28.95;51.93;100279.38;5015156;28;45511;-82
2023/07/11 10:45:08;;;;;;;;;2.00;2.00;;;;;28.96;52.68;100286.47;5015648;28;45368;-81
2023/07/11 10:47:38;;;;;;;;;4.00;4.00;;;;;29.10;51.92;100296.53;5016268;28;45359;-82
2023/07/11 10:50:21;;;;;;;;;2.00;2.00;;;;;28.99;51.54;100285.44;5016199;28;45568;-82
2023/07/11 10:52:53;;;;;;;;;3.33;2.67;;;;;29.04;52.19;100304.91;5014773;28;45974;-81
2023/07/11 10:55:24;;;;;;;;;3.67;2.67;;;;;29.04;52.19;100299.53;5015285;28;45454;-79
2023/07/11 10:57:53;;;;;;;;;3.33;2.00;;;;;29.04;52.01;100292.31;5016273;28;45558;-81
2023/07/11 11:00:25;;;;;;;;;3.00;3.00;;;;;29.13;52.00;100297.28;5017103;28;45747;-82
2023/07/11 11:03:12;;;;;;;;;4.33;4.00;;;;;29.18;52.07;100298.84;5015732;28;45458;-83
2023/07/11 11:06:06;;;;;;;;;3.00;2.33;;;;;29.21;52.30;100302.25;5014955;28;45577;-82
2023/07/11 11:08:58;;;;;;;;;2.67;2.33;;;;;29.16;52.03;100296.25;5014675;28;45339;-79
2023/07/11 11:11:41;;;;;;;;;4.00;2.67;;;;;29.22;52.08;100297.75;5002379;28;46536;-82
2023/07/11 11:14:52;;;;;;;;;2.00;2.00;;;;;29.19;52.35;100301.47;4995282;28;45458;-82
2023/07/11 11:17:39;;;;;;;;;1.67;1.67;;;;;29.12;52.47;100303.59;5012840;28;45581;-82
2023/07/11 11:20:18;;;;;;;;;2.33;2.00;;;;;29.02;52.90;100288.84;5012166;28;45524;-82
2023/07/11 11:23:18;;;;;;;;;4.00;3.00;;;;;29.13;52.69;100293.72;4996443;28;45498;-81
2023/07/11 11:26:18;;;;;;;;;2.33;2.33;;;;;29.15;52.32;100291.81;4996049;28;45470;-79
2023/07/11 11:28:49;;;;;;;;;3.00;3.00;;;;;29.16;51.93;100293.53;4982588;28;45358;-80
2023/07/11 11:31:15;;;;;;;;;3.00;2.00;;;;;29.19;51.98;100295.19;4996534;28;45470;-81
2023/07/11 11:34:08;;;;;;;;;2.00;2.00;;;;;29.24;51.92;100293.16;4996837;28;45942;-79
2023/07/11 11:36:58;;;;;;;;;3.00;2.00;;;;;29.29;51.94;100307.25;4996574;28;45367;-81